QLK541 YSWG-YSSY
Flight info
| Callsign | QLK541 |
|---|---|
| Flight time | 0h 42m |
| Altitude | 27000 |
| Route | HAPPI DCT RIVET |
| Aircraft | A319/M-SDE3FGHIRWY/LB1 |
Departure
| Time | 2026-05-09 02:41 |
|---|---|
| Airport | Wagga Wagga Airport (YSWG) |
Arrival
| Time | 2026-05-09 03:24 |
|---|---|
| Airport | Sydney Kingsford Smith International Airport (YSSY) |
| Time | Latitude | Longitude | Altitude | Speed | Heading |
|---|---|---|---|---|---|
| 2026-05-09 02:17 | -35.15962 | 147.46222 | 730 ft | 0 kts | 355° |
| 2026-05-09 02:35 | -35.15960 | 147.46222 | 731 ft | 0 kts | 15° |
| 2026-05-09 02:35 | -35.15958 | 147.46233 | 731 ft | 2 kts | 107° |
| 2026-05-09 02:35 | -35.15984 | 147.46256 | 731 ft | 6 kts | 147° |
| 2026-05-09 02:35 | -35.16029 | 147.46289 | 731 ft | 9 kts | 148° |
| 2026-05-09 02:36 | -35.16116 | 147.46343 | 731 ft | 17 kts | 153° |
| 2026-05-09 02:36 | -35.16213 | 147.46403 | 731 ft | 14 kts | 152° |
| 2026-05-09 02:36 | -35.16257 | 147.46434 | 730 ft | 5 kts | 151° |
| 2026-05-09 02:36 | -35.16299 | 147.46463 | 731 ft | 8 kts | 151° |
| 2026-05-09 02:37 | -35.16359 | 147.46420 | 731 ft | 16 kts | 246° |
| 2026-05-09 02:37 | -35.16413 | 147.46292 | 731 ft | 15 kts | 243° |
| 2026-05-09 02:37 | -35.16464 | 147.46173 | 731 ft | 16 kts | 243° |
| 2026-05-09 02:37 | -35.16516 | 147.46053 | 731 ft | 16 kts | 243° |
| 2026-05-09 02:38 | -35.16542 | 147.45987 | 731 ft | 5 kts | 244° |
| 2026-05-09 02:38 | -35.16562 | 147.45953 | 731 ft | 4 kts | 201° |
| 2026-05-09 02:38 | -35.16597 | 147.45964 | 731 ft | 6 kts | 153° |
| 2026-05-09 02:38 | -35.16621 | 147.45979 | 731 ft | 0 kts | 153° |
| 2026-05-09 02:39 | -35.16622 | 147.45979 | 731 ft | 0 kts | 153° |
| 2026-05-09 02:40 | -35.16647 | 147.45996 | 731 ft | 10 kts | 152° |
| 2026-05-09 02:40 | -35.16689 | 147.46057 | 731 ft | 7 kts | 68° |
| 2026-05-09 02:40 | -35.16685 | 147.46065 | 731 ft | 0 kts | 63° |
| 2026-05-09 02:40 | -35.16622 | 147.46211 | 731 ft | 55 kts | 62° |
| 2026-05-09 02:41 | -35.16315 | 147.46916 | 731 ft | 130 kts | 62° |
| 2026-05-09 02:41 | -35.15852 | 147.47955 | 1302 ft | 141 kts | 62° |
| 2026-05-09 02:41 | -35.15374 | 147.48993 | 2038 ft | 145 kts | 62° |
| 2026-05-09 02:41 | -35.15026 | 147.50150 | 2734 ft | 152 kts | 79° |
| 2026-05-09 02:42 | -35.14729 | 147.51416 | 3363 ft | 166 kts | 69° |
| 2026-05-09 02:42 | -35.14219 | 147.52745 | 4011 ft | 181 kts | 66° |
| 2026-05-09 02:42 | -35.13655 | 147.54189 | 4634 ft | 199 kts | 66° |
| 2026-05-09 02:42 | -35.13058 | 147.55774 | 5262 ft | 216 kts | 68° |
| 2026-05-09 02:43 | -35.12419 | 147.57518 | 5844 ft | 238 kts | 68° |
| 2026-05-09 02:43 | -35.11720 | 147.59460 | 6489 ft | 259 kts | 69° |
| 2026-05-09 02:43 | -35.10979 | 147.61539 | 7211 ft | 277 kts | 69° |
| 2026-05-09 02:43 | -35.10199 | 147.63737 | 8165 ft | 285 kts | 68° |
| 2026-05-09 02:44 | -35.09419 | 147.65938 | 9196 ft | 289 kts | 68° |
| 2026-05-09 02:44 | -35.08623 | 147.68179 | 10184 ft | 292 kts | 68° |
| 2026-05-09 02:44 | -35.07817 | 147.70456 | 11039 ft | 299 kts | 68° |
| 2026-05-09 02:44 | -35.06974 | 147.72841 | 11569 ft | 316 kts | 67° |
| 2026-05-09 02:45 | -35.06083 | 147.75354 | 12093 ft | 332 kts | 67° |
| 2026-05-09 02:45 | -35.05158 | 147.77959 | 12884 ft | 337 kts | 67° |
| 2026-05-09 02:45 | -35.04227 | 147.80580 | 13750 ft | 339 kts | 67° |
| 2026-05-09 02:45 | -35.03281 | 147.83238 | 14560 ft | 343 kts | 67° |
| 2026-05-09 02:46 | -35.02337 | 147.85886 | 15300 ft | 348 kts | 67° |
| 2026-05-09 02:46 | -35.01362 | 147.88629 | 16012 ft | 353 kts | 67° |
| 2026-05-09 02:46 | -35.00383 | 147.91374 | 16698 ft | 359 kts | 67° |
| 2026-05-09 02:46 | -34.99393 | 147.94148 | 17333 ft | 365 kts | 67° |
| 2026-05-09 02:47 | -34.98373 | 147.97011 | 17971 ft | 370 kts | 67° |
| 2026-05-09 02:47 | -34.97344 | 147.99892 | 18637 ft | 375 kts | 67° |
| 2026-05-09 02:47 | -34.96341 | 148.02840 | 19363 ft | 377 kts | 70° |
| 2026-05-09 02:47 | -34.95483 | 148.05818 | 20076 ft | 379 kts | 72° |
| 2026-05-09 02:48 | -34.94642 | 148.08890 | 20768 ft | 381 kts | 73° |
| 2026-05-09 02:48 | -34.93808 | 148.11952 | 21431 ft | 384 kts | 73° |
| 2026-05-09 02:48 | -34.92974 | 148.15016 | 22074 ft | 386 kts | 73° |
| 2026-05-09 02:48 | -34.92123 | 148.18141 | 22688 ft | 389 kts | 74° |
| 2026-05-09 02:49 | -34.91268 | 148.21269 | 23282 ft | 392 kts | 74° |
| 2026-05-09 02:49 | -34.90413 | 148.24393 | 23872 ft | 394 kts | 74° |
| 2026-05-09 02:49 | -34.89546 | 148.27563 | 24456 ft | 396 kts | 74° |
| 2026-05-09 02:49 | -34.88668 | 148.30768 | 25043 ft | 398 kts | 74° |
| 2026-05-09 02:50 | -34.87786 | 148.33980 | 25616 ft | 400 kts | 74° |
| 2026-05-09 02:50 | -34.86911 | 148.37161 | 26142 ft | 402 kts | 74° |
| 2026-05-09 02:50 | -34.86013 | 148.40420 | 26655 ft | 405 kts | 74° |
| 2026-05-09 02:50 | -34.85123 | 148.43646 | 27117 ft | 408 kts | 74° |
| 2026-05-09 02:51 | -34.84219 | 148.46921 | 27296 ft | 409 kts | 74° |
| 2026-05-09 02:51 | -34.83313 | 148.50191 | 27297 ft | 408 kts | 74° |
| 2026-05-09 02:51 | -34.82411 | 148.53447 | 27299 ft | 408 kts | 74° |
| 2026-05-09 02:51 | -34.81504 | 148.56720 | 27303 ft | 408 kts | 74° |
| 2026-05-09 02:52 | -34.80598 | 148.59984 | 27302 ft | 407 kts | 74° |
| 2026-05-09 02:52 | -34.79686 | 148.63263 | 27297 ft | 407 kts | 74° |
| 2026-05-09 02:52 | -34.78791 | 148.66483 | 27299 ft | 408 kts | 73° |
| 2026-05-09 02:52 | -34.77879 | 148.69759 | 27296 ft | 408 kts | 74° |
| 2026-05-09 02:53 | -34.76971 | 148.73012 | 27298 ft | 409 kts | 73° |
| 2026-05-09 02:53 | -34.76059 | 148.76282 | 27299 ft | 409 kts | 73° |
| 2026-05-09 02:53 | -34.75135 | 148.79581 | 27299 ft | 408 kts | 73° |
| 2026-05-09 02:53 | -34.74225 | 148.82838 | 27298 ft | 408 kts | 73° |
| 2026-05-09 02:54 | -34.73314 | 148.86089 | 27297 ft | 408 kts | 73° |
| 2026-05-09 02:54 | -34.72400 | 148.89349 | 27296 ft | 408 kts | 73° |
| 2026-05-09 02:54 | -34.71487 | 148.92596 | 27295 ft | 408 kts | 73° |
| 2026-05-09 02:54 | -34.70563 | 148.95885 | 27300 ft | 409 kts | 73° |
| 2026-05-09 02:55 | -34.69654 | 148.99112 | 27297 ft | 409 kts | 73° |
| 2026-05-09 02:55 | -34.68723 | 149.02414 | 27299 ft | 409 kts | 73° |
| 2026-05-09 02:55 | -34.67803 | 149.05672 | 27301 ft | 409 kts | 73° |
| 2026-05-09 02:55 | -34.66882 | 149.08931 | 27297 ft | 409 kts | 73° |
| 2026-05-09 02:56 | -34.65966 | 149.12167 | 27298 ft | 408 kts | 73° |
| 2026-05-09 02:56 | -34.65038 | 149.15448 | 27301 ft | 409 kts | 73° |
| 2026-05-09 02:56 | -34.64116 | 149.18700 | 27302 ft | 408 kts | 73° |
| 2026-05-09 02:56 | -34.63202 | 149.21925 | 27298 ft | 409 kts | 73° |
| 2026-05-09 02:57 | -34.62264 | 149.25223 | 27299 ft | 409 kts | 73° |
| 2026-05-09 02:57 | -34.61344 | 149.28456 | 27302 ft | 410 kts | 73° |
| 2026-05-09 02:57 | -34.60417 | 149.31712 | 27301 ft | 409 kts | 73° |
| 2026-05-09 02:57 | -34.59483 | 149.34984 | 27299 ft | 410 kts | 73° |
| 2026-05-09 02:58 | -34.58537 | 149.38301 | 27301 ft | 410 kts | 73° |
| 2026-05-09 02:58 | -34.57602 | 149.41574 | 27303 ft | 410 kts | 73° |
| 2026-05-09 02:58 | -34.56678 | 149.44801 | 27303 ft | 410 kts | 73° |
| 2026-05-09 02:58 | -34.55731 | 149.48105 | 27305 ft | 409 kts | 73° |
| 2026-05-09 02:59 | -34.54796 | 149.51369 | 27305 ft | 409 kts | 73° |
| 2026-05-09 02:59 | -34.53862 | 149.54622 | 27304 ft | 409 kts | 73° |
| 2026-05-09 02:59 | -34.52932 | 149.57860 | 27086 ft | 410 kts | 73° |
| 2026-05-09 02:59 | -34.52001 | 149.61087 | 26530 ft | 407 kts | 73° |
| 2026-05-09 03:00 | -34.51076 | 149.64294 | 25997 ft | 403 kts | 73° |
| 2026-05-09 03:00 | -34.50153 | 149.67496 | 25478 ft | 399 kts | 73° |
| 2026-05-09 03:00 | -34.49244 | 149.70642 | 24975 ft | 395 kts | 73° |
| 2026-05-09 03:00 | -34.48342 | 149.73763 | 24488 ft | 391 kts | 73° |
| 2026-05-09 03:01 | -34.47449 | 149.76846 | 24014 ft | 388 kts | 73° |
| 2026-05-09 03:01 | -34.46560 | 149.79915 | 23539 ft | 386 kts | 73° |
| 2026-05-09 03:01 | -34.45675 | 149.82970 | 23049 ft | 384 kts | 73° |
| 2026-05-09 03:01 | -34.44796 | 149.86002 | 22579 ft | 381 kts | 73° |
| 2026-05-09 03:02 | -34.43932 | 149.88979 | 22125 ft | 379 kts | 73° |
| 2026-05-09 03:02 | -34.43054 | 149.91995 | 21652 ft | 378 kts | 73° |
| 2026-05-09 03:02 | -34.42184 | 149.94983 | 21199 ft | 376 kts | 72° |
| 2026-05-09 03:02 | -34.41329 | 149.97920 | 20759 ft | 374 kts | 72° |
| 2026-05-09 03:03 | -34.40451 | 150.00929 | 20293 ft | 373 kts | 72° |
| 2026-05-09 03:03 | -34.39593 | 150.03867 | 19836 ft | 372 kts | 72° |
| 2026-05-09 03:03 | -34.38727 | 150.06830 | 19381 ft | 371 kts | 72° |
| 2026-05-09 03:03 | -34.37871 | 150.09753 | 18919 ft | 371 kts | 72° |
| 2026-05-09 03:04 | -34.37010 | 150.12694 | 18473 ft | 370 kts | 72° |
| 2026-05-09 03:04 | -34.36157 | 150.15602 | 18017 ft | 369 kts | 72° |
| 2026-05-09 03:04 | -34.35300 | 150.18520 | 17577 ft | 368 kts | 72° |
| 2026-05-09 03:04 | -34.34434 | 150.21464 | 17126 ft | 367 kts | 72° |
| 2026-05-09 03:05 | -34.33588 | 150.24341 | 16706 ft | 365 kts | 72° |
| 2026-05-09 03:05 | -34.32737 | 150.27229 | 16275 ft | 364 kts | 72° |
| 2026-05-09 03:05 | -34.31896 | 150.30080 | 15833 ft | 362 kts | 72° |
| 2026-05-09 03:05 | -34.31044 | 150.32968 | 15386 ft | 361 kts | 72° |
| 2026-05-09 03:06 | -34.30213 | 150.35777 | 14926 ft | 360 kts | 72° |
| 2026-05-09 03:06 | -34.29372 | 150.38623 | 14468 ft | 358 kts | 72° |
| 2026-05-09 03:06 | -34.28523 | 150.41435 | 14052 ft | 357 kts | 70° |
| 2026-05-09 03:06 | -34.27518 | 150.44202 | 13590 ft | 356 kts | 66° |
| 2026-05-09 03:07 | -34.26391 | 150.46815 | 13160 ft | 354 kts | 64° |
| 2026-05-09 03:07 | -34.25216 | 150.49440 | 12723 ft | 353 kts | 63° |
| 2026-05-09 03:07 | -34.24050 | 150.52029 | 12287 ft | 351 kts | 63° |
| 2026-05-09 03:07 | -34.22896 | 150.54594 | 11844 ft | 350 kts | 63° |
| 2026-05-09 03:08 | -34.21733 | 150.57188 | 11409 ft | 348 kts | 63° |
| 2026-05-09 03:08 | -34.20580 | 150.59757 | 10972 ft | 346 kts | 63° |
| 2026-05-09 03:08 | -34.19439 | 150.62300 | 10543 ft | 344 kts | 63° |
| 2026-05-09 03:08 | -34.18315 | 150.64798 | 10315 ft | 335 kts | 63° |
| 2026-05-09 03:09 | -34.17221 | 150.67230 | 10113 ft | 326 kts | 63° |
| 2026-05-09 03:09 | -34.16163 | 150.69583 | 9970 ft | 315 kts | 63° |
| 2026-05-09 03:09 | -34.15120 | 150.71905 | 9716 ft | 308 kts | 63° |
| 2026-05-09 03:09 | -34.14115 | 150.74132 | 9359 ft | 301 kts | 63° |
| 2026-05-09 03:10 | -34.13131 | 150.76317 | 9014 ft | 294 kts | 63° |
| 2026-05-09 03:10 | -34.12163 | 150.78465 | 8689 ft | 289 kts | 63° |
| 2026-05-09 03:10 | -34.11211 | 150.80576 | 8372 ft | 288 kts | 63° |
| 2026-05-09 03:10 | -34.10261 | 150.82684 | 8066 ft | 287 kts | 63° |
| 2026-05-09 03:11 | -34.09306 | 150.84804 | 8009 ft | 287 kts | 63° |
| 2026-05-09 03:11 | -34.08355 | 150.86917 | 8020 ft | 289 kts | 63° |
| 2026-05-09 03:11 | -34.07396 | 150.89050 | 8037 ft | 289 kts | 63° |
| 2026-05-09 03:11 | -34.06433 | 150.91193 | 8029 ft | 288 kts | 63° |
| 2026-05-09 03:12 | -34.05485 | 150.93297 | 8030 ft | 288 kts | 63° |
| 2026-05-09 03:12 | -34.04517 | 150.95441 | 8032 ft | 287 kts | 63° |
| 2026-05-09 03:12 | -34.03572 | 150.97530 | 7859 ft | 283 kts | 63° |
| 2026-05-09 03:12 | -34.02624 | 150.99626 | 7861 ft | 288 kts | 63° |
| 2026-05-09 03:13 | -34.00083 | 151.03229 | 7609 ft | 287 kts | 27° |
| 2026-05-09 03:13 | -33.98160 | 151.03876 | 7229 ft | 288 kts | 7° |
| 2026-05-09 03:13 | -33.96177 | 151.04004 | 6894 ft | 286 kts | 357° |
| 2026-05-09 03:14 | -33.94177 | 151.03821 | 6581 ft | 284 kts | 353° |
| 2026-05-09 03:14 | -33.92239 | 151.03575 | 6392 ft | 278 kts | 353° |
| 2026-05-09 03:14 | -33.90329 | 151.03320 | 6265 ft | 270 kts | 353° |
| 2026-05-09 03:14 | -33.88501 | 151.03072 | 6134 ft | 261 kts | 353° |
| 2026-05-09 03:15 | -33.86679 | 151.02818 | 5977 ft | 256 kts | 353° |
| 2026-05-09 03:15 | -33.84909 | 151.02568 | 5798 ft | 255 kts | 353° |
| 2026-05-09 03:15 | -33.83180 | 151.02322 | 5602 ft | 250 kts | 353° |
| 2026-05-09 03:15 | -33.81443 | 151.02071 | 5434 ft | 245 kts | 353° |
| 2026-05-09 03:16 | -33.79781 | 151.01840 | 5271 ft | 238 kts | 356° |
| 2026-05-09 03:16 | -33.78202 | 151.02181 | 4977 ft | 233 kts | 33° |
| 2026-05-09 03:16 | -33.77102 | 151.03538 | 4671 ft | 223 kts | 59° |
| 2026-05-09 03:16 | -33.76314 | 151.05112 | 4389 ft | 218 kts | 62° |
| 2026-05-09 03:17 | -33.75533 | 151.06641 | 4199 ft | 213 kts | 60° |
| 2026-05-09 03:17 | -33.74711 | 151.08107 | 4222 ft | 206 kts | 58° |
| 2026-05-09 03:17 | -33.73887 | 151.09486 | 4153 ft | 200 kts | 58° |
| 2026-05-09 03:17 | -33.73396 | 151.10977 | 4035 ft | 190 kts | 91° |
| 2026-05-09 03:18 | -33.73786 | 151.12440 | 4018 ft | 183 kts | 131° |
| 2026-05-09 03:18 | -33.74786 | 151.13342 | 4037 ft | 180 kts | 154° |
| 2026-05-09 03:18 | -33.75937 | 151.13856 | 3893 ft | 173 kts | 164° |
| 2026-05-09 03:18 | -33.77103 | 151.14204 | 3655 ft | 170 kts | 167° |
| 2026-05-09 03:19 | -33.78245 | 151.14500 | 3420 ft | 166 kts | 168° |
| 2026-05-09 03:19 | -33.79358 | 151.14783 | 3184 ft | 157 kts | 168° |
| 2026-05-09 03:19 | -33.80421 | 151.15056 | 2972 ft | 155 kts | 168° |
| 2026-05-09 03:19 | -33.81474 | 151.15329 | 2768 ft | 155 kts | 168° |
| 2026-05-09 03:20 | -33.82528 | 151.15602 | 2565 ft | 154 kts | 168° |
| 2026-05-09 03:20 | -33.83556 | 151.15871 | 2351 ft | 147 kts | 168° |
| 2026-05-09 03:20 | -33.84533 | 151.16126 | 2148 ft | 139 kts | 169° |
| 2026-05-09 03:20 | -33.85464 | 151.16368 | 1956 ft | 135 kts | 169° |
| 2026-05-09 03:21 | -33.86380 | 151.16608 | 1785 ft | 134 kts | 170° |
| 2026-05-09 03:21 | -33.87297 | 151.16846 | 1611 ft | 134 kts | 170° |
| 2026-05-09 03:21 | -33.88211 | 151.17084 | 1434 ft | 135 kts | 170° |
| 2026-05-09 03:21 | -33.89139 | 151.17325 | 1251 ft | 136 kts | 171° |
| 2026-05-09 03:22 | -33.90063 | 151.17564 | 1066 ft | 137 kts | 171° |
| 2026-05-09 03:22 | -33.91007 | 151.17810 | 876 ft | 138 kts | 171° |
| 2026-05-09 03:22 | -33.91948 | 151.18054 | 733 ft | 139 kts | 171° |
| 2026-05-09 03:22 | -33.92902 | 151.18308 | 563 ft | 141 kts | 171° |
| 2026-05-09 03:23 | -33.93870 | 151.18556 | 341 ft | 142 kts | 172° |
| 2026-05-09 03:23 | -33.94835 | 151.18806 | 130 ft | 143 kts | 172° |
| 2026-05-09 03:23 | -33.95806 | 151.19052 | 26 ft | 135 kts | 171° |
| 2026-05-09 03:23 | -33.96530 | 151.19235 | 25 ft | 63 kts | 169° |
| 2026-05-09 03:24 | -33.96869 | 151.19296 | 25 ft | 39 kts | 182° |
| 2026-05-09 03:24 | -33.97026 | 151.19272 | 25 ft | 17 kts | 194° |
| 2026-05-09 03:24 | -33.97126 | 151.19203 | 25 ft | 17 kts | 262° |
| 2026-05-09 03:24 | -33.97058 | 151.19128 | 25 ft | 12 kts | 348° |
| 2026-05-09 03:25 | -33.96984 | 151.19110 | 25 ft | 10 kts | 348° |
| 2026-05-09 03:25 | -33.96905 | 151.19089 | 25 ft | 12 kts | 348° |
| 2026-05-09 03:25 | -33.96812 | 151.19070 | 25 ft | 14 kts | 356° |
| 2026-05-09 03:25 | -33.96705 | 151.19078 | 25 ft | 16 kts | 359° |
| 2026-05-09 03:26 | -33.96590 | 151.19052 | 25 ft | 17 kts | 346° |
| 2026-05-09 03:26 | -33.96468 | 151.19014 | 25 ft | 18 kts | 342° |
| 2026-05-09 03:26 | -33.96348 | 151.18986 | 25 ft | 17 kts | 351° |
| 2026-05-09 03:26 | -33.96224 | 151.18957 | 25 ft | 18 kts | 347° |
| 2026-05-09 03:27 | -33.96097 | 151.18924 | 25 ft | 19 kts | 348° |
| 2026-05-09 03:27 | -33.95960 | 151.18890 | 25 ft | 20 kts | 347° |
| 2026-05-09 03:27 | -33.95818 | 151.18851 | 25 ft | 21 kts | 347° |
| 2026-05-09 03:27 | -33.95681 | 151.18817 | 25 ft | 19 kts | 348° |
| 2026-05-09 03:28 | -33.95573 | 151.18790 | 25 ft | 11 kts | 348° |
| 2026-05-09 03:28 | -33.95497 | 151.18767 | 25 ft | 12 kts | 345° |
| 2026-05-09 03:28 | -33.95409 | 151.18741 | 25 ft | 15 kts | 351° |
| 2026-05-09 03:28 | -33.95259 | 151.18689 | 25 ft | 24 kts | 331° |
| 2026-05-09 03:29 | -33.95136 | 151.18559 | 25 ft | 22 kts | 302° |
| 2026-05-09 03:29 | -33.95126 | 151.18378 | 25 ft | 22 kts | 259° |
| 2026-05-09 03:29 | -33.95159 | 151.18196 | 25 ft | 22 kts | 258° |
| 2026-05-09 03:29 | -33.95134 | 151.18048 | 25 ft | 19 kts | 338° |
| 2026-05-09 03:30 | -33.95037 | 151.18019 | 25 ft | 0 kts | 348° |
| 2026-05-09 03:30 | -33.95036 | 151.18018 | 25 ft | 0 kts | 348° |